createdAt,value
2019-05-05T00:03:01.644Z,1.54
2019-05-05T00:05:38.783Z,1.51
2019-05-05T00:08:15.236Z,1.44
2019-05-05T00:11:05.069Z,1.39
2019-05-05T00:13:52.221Z,1.33
2019-05-05T00:16:44.482Z,1.31
2019-05-05T00:19:30.674Z,1.33
2019-05-05T00:21:55.115Z,1.37
2019-05-05T00:24:29.099Z,1.34
2019-05-05T00:27:04.326Z,1.38
2019-05-05T00:29:39.959Z,1.35
2019-05-05T00:32:15.304Z,1.33
2019-05-05T00:34:49.063Z,1.31
2019-05-05T00:37:25.470Z,1.38
2019-05-05T00:39:59.000Z,1.33
2019-05-05T00:42:35.235Z,1.36
2019-05-05T00:45:09.808Z,1.34
2019-05-05T00:47:49.125Z,1.26
2019-05-05T00:50:25.230Z,1.29
2019-05-05T00:53:02.369Z,1.32
2019-05-05T00:55:36.174Z,1.21
2019-05-05T00:58:09.778Z,1.29
2019-05-05T01:01:08.353Z,1.09
2019-05-05T01:03:44.053Z,1.10
2019-05-05T01:06:22.616Z,0.93
2019-05-05T01:08:56.941Z,0.98
2019-05-05T01:11:31.100Z,0.94
2019-05-05T01:14:05.165Z,0.93
2019-05-05T01:16:40.201Z,0.92
2019-05-05T01:23:17.564Z,0.97
2019-05-05T01:25:51.475Z,0.93
2019-05-05T01:28:26.719Z,0.86
2019-05-05T01:31:05.614Z,0.91
2019-05-05T01:33:59.100Z,0.84
2019-05-05T01:36:35.062Z,0.76
2019-05-05T01:39:25.387Z,0.77
2019-05-05T01:42:04.925Z,0.76
2019-05-05T01:45:06.658Z,0.70
2019-05-05T01:47:41.284Z,0.77
2019-05-05T01:50:20.867Z,0.68
2019-05-05T01:52:50.603Z,0.71
2019-05-05T01:55:25.962Z,0.66
2019-05-05T01:58:00.210Z,0.65
2019-05-05T02:00:34.766Z,0.62
2019-05-05T02:03:11.676Z,0.60
2019-05-05T02:05:45.684Z,0.56
2019-05-05T02:08:19.291Z,0.57
2019-05-05T02:10:54.777Z,0.54
2019-05-05T02:13:30.383Z,0.54
2019-05-05T02:16:06.172Z,0.50
2019-05-05T02:18:39.911Z,0.52
2019-05-05T02:21:14.670Z,0.57
2019-05-05T02:23:50.050Z,0.57
2019-05-05T02:26:24.612Z,0.65
2019-05-05T02:29:15.335Z,0.75
2019-05-05T02:32:06.749Z,0.85
2019-05-05T02:34:46.283Z,0.88
2019-05-05T02:37:20.089Z,0.97
2019-05-05T02:39:58.870Z,1.11
2019-05-05T02:42:30.767Z,1.15
2019-05-05T02:45:08.188Z,1.16
2019-05-05T02:48:01.011Z,1.18
2019-05-05T02:51:00.735Z,1.31
2019-05-05T02:53:40.710Z,1.31
2019-05-05T02:56:23.975Z,1.38
2019-05-05T02:59:04.323Z,1.39
2019-05-05T03:02:01.170Z,1.43
2019-05-05T03:04:37.536Z,1.48
2019-05-05T03:07:14.294Z,1.55
2019-05-05T03:09:50.582Z,1.63
2019-05-05T03:12:27.628Z,1.59
2019-05-05T03:15:55.113Z,1.59
2019-05-05T03:18:29.015Z,1.64
2019-05-05T03:21:07.123Z,1.69
2019-05-05T03:23:41.698Z,1.76
2019-05-05T03:26:16.570Z,1.72
2019-05-05T03:28:56.557Z,1.74
2019-05-05T03:31:30.713Z,1.68
2019-05-05T03:34:06.500Z,1.72
2019-05-05T03:36:44.091Z,1.70
2019-05-05T03:39:27.502Z,1.64
2019-05-05T03:42:53.547Z,1.66
2019-05-05T03:45:53.847Z,1.63
2019-05-05T03:48:27.889Z,1.68
2019-05-05T03:51:15.990Z,1.73
2019-05-05T03:53:39.379Z,1.76
2019-05-05T03:56:14.097Z,1.90
2019-05-05T03:58:49.406Z,2.00
2019-05-05T04:01:40.437Z,2.02
2019-05-05T04:04:25.461Z,2.14
2019-05-05T04:06:59.599Z,2.17
2019-05-05T04:09:34.594Z,2.20
2019-05-05T04:12:10.270Z,2.29
2019-05-05T04:14:46.512Z,2.37
2019-05-05T04:17:37.948Z,2.33
2019-05-05T04:20:29.865Z,2.34
2019-05-05T04:23:04.691Z,2.41
2019-05-05T04:25:38.515Z,2.42
2019-05-05T04:28:13.676Z,2.71
2019-05-05T04:30:49.185Z,3.70
2019-05-05T04:33:24.022Z,4.81
2019-05-05T04:35:58.978Z,5.72
2019-05-05T04:38:34.701Z,6.27
2019-05-05T04:41:09.159Z,6.68
2019-05-05T04:43:44.282Z,7.09
2019-05-05T04:46:19.706Z,7.23
2019-05-05T04:49:03.599Z,7.59
2019-05-05T04:51:47.786Z,7.98
2019-05-05T04:54:24.418Z,8.45
2019-05-05T04:56:58.642Z,8.83
2019-05-05T04:59:33.988Z,9.53
2019-05-05T05:02:20.254Z,9.44
2019-05-05T05:05:14.546Z,10.00
2019-05-05T05:07:48.300Z,9.87
2019-05-05T05:10:24.054Z,10.74
2019-05-05T05:12:58.778Z,10.84
2019-05-05T05:15:34.054Z,11.15
2019-05-05T05:18:14.883Z,11.46
2019-05-05T05:20:50.106Z,11.69
2019-05-05T05:23:24.659Z,11.90
2019-05-05T05:26:00.407Z,11.99
2019-05-05T05:28:34.271Z,12.18
2019-05-05T05:31:08.023Z,12.19
2019-05-05T05:33:43.522Z,12.39
2019-05-05T05:36:17.074Z,11.86
2019-05-05T05:38:54.229Z,12.32
2019-05-05T05:41:44.337Z,13.35
2019-05-05T05:44:39.742Z,13.00
2019-05-05T05:47:24.454Z,13.46
2019-05-05T05:50:10.895Z,13.63
2019-05-05T05:52:46.841Z,14.75
2019-05-05T05:55:23.663Z,14.10
2019-05-05T05:57:58.010Z,14.56
2019-05-05T06:00:31.770Z,15.02
2019-05-05T06:03:07.409Z,15.90
2019-05-05T06:05:43.731Z,15.50
2019-05-05T06:08:18.903Z,15.12
2019-05-05T06:10:54.535Z,15.41
2019-05-05T06:13:29.486Z,15.78
2019-05-05T06:16:04.306Z,16.62
2019-05-05T06:18:40.071Z,15.28
2019-05-05T06:21:17.280Z,15.10
2019-05-05T06:23:53.795Z,15.95
2019-05-05T06:26:28.960Z,15.75
2019-05-05T06:29:04.357Z,15.75
2019-05-05T06:31:38.247Z,15.84
2019-05-05T06:34:13.986Z,16.22
2019-05-05T06:36:49.393Z,17.02
2019-05-05T06:39:26.103Z,15.78
2019-05-05T06:42:34.314Z,16.52
2019-05-05T06:45:28.011Z,16.70
2019-05-05T06:48:04.313Z,16.06
2019-05-05T06:50:38.592Z,16.88
2019-05-05T06:53:13.542Z,17.56
2019-05-05T06:55:47.371Z,17.57
2019-05-05T06:58:21.076Z,18.14
2019-05-05T07:00:55.812Z,17.87
2019-05-05T07:03:34.537Z,18.08
2019-05-05T07:06:11.092Z,17.98
2019-05-05T07:08:44.655Z,17.92
2019-05-05T07:11:18.779Z,18.07
2019-05-05T07:13:54.972Z,17.22
2019-05-05T07:16:30.489Z,17.06
2019-05-05T07:19:23.820Z,18.25
2019-05-05T07:21:57.920Z,17.17
2019-05-05T07:24:35.687Z,17.49
2019-05-05T07:27:13.973Z,17.36
2019-05-05T07:29:50.505Z,18.33
2019-05-05T07:32:24.660Z,18.28
2019-05-05T07:35:25.716Z,16.60
2019-05-05T07:37:59.415Z,17.00
2019-05-05T07:40:34.596Z,18.08
2019-05-05T07:43:08.489Z,18.37
2019-05-05T07:45:44.590Z,18.58
2019-05-05T07:48:19.872Z,18.55
2019-05-05T07:51:01.962Z,17.64
2019-05-05T07:53:28.985Z,17.74
2019-05-05T07:56:03.908Z,18.16
2019-05-05T07:58:39.497Z,18.84
2019-05-05T08:01:14.084Z,17.57
2019-05-05T08:03:48.138Z,17.32
2019-05-05T08:06:23.685Z,17.79
2019-05-05T08:08:57.991Z,17.65
2019-05-05T08:11:31.734Z,18.04
2019-05-05T08:14:05.752Z,16.82
2019-05-05T08:16:56.837Z,17.33
2019-05-05T08:19:35.947Z,17.08
2019-05-05T08:22:09.968Z,17.50
2019-05-05T08:25:03.890Z,17.40
2019-05-05T08:27:49.314Z,18.10
2019-05-05T08:30:58.230Z,17.41
2019-05-05T08:33:33.634Z,18.04
2019-05-05T08:36:08.412Z,16.98
2019-05-05T08:38:44.114Z,15.42
2019-05-05T08:41:17.953Z,16.45
2019-05-05T08:43:54.284Z,16.52
2019-05-05T08:46:28.326Z,16.34
2019-05-05T08:49:06.338Z,15.48
2019-05-05T08:51:51.504Z,14.34
2019-05-05T08:54:26.669Z,15.10
2019-05-05T08:57:00.858Z,16.38
2019-05-05T08:59:35.687Z,15.46
2019-05-05T09:02:09.280Z,15.69
2019-05-05T09:04:44.764Z,15.34
2019-05-05T09:07:20.696Z,15.04
2019-05-05T09:09:55.527Z,15.83
2019-05-05T09:12:31.414Z,15.74
2019-05-05T09:15:05.055Z,15.98
2019-05-05T09:17:39.834Z,15.29
2019-05-05T09:20:14.609Z,15.27
2019-05-05T09:22:50.306Z,15.16
2019-05-05T09:25:41.190Z,14.69
2019-05-05T09:28:27.999Z,14.24
2019-05-05T09:31:04.055Z,14.75
2019-05-05T09:33:37.555Z,15.78
2019-05-05T09:36:13.787Z,16.34
2019-05-05T09:38:47.363Z,15.32
2019-05-05T09:41:28.335Z,14.62
2019-05-05T09:44:04.205Z,14.10
2019-05-05T09:46:39.669Z,13.32
2019-05-05T09:49:14.638Z,13.13
2019-05-05T09:51:48.323Z,13.86
2019-05-05T09:54:26.654Z,15.33
2019-05-05T09:57:00.631Z,14.89
2019-05-05T09:59:35.037Z,14.07
2019-05-05T10:02:12.371Z,14.04
2019-05-05T10:04:48.837Z,14.20
2019-05-05T10:07:24.612Z,13.53
2019-05-05T10:10:00.149Z,13.77
2019-05-05T10:12:33.914Z,13.58
2019-05-05T10:15:08.355Z,13.90
2019-05-05T10:17:42.405Z,13.75
2019-05-05T10:20:18.031Z,13.52
2019-05-05T10:22:54.337Z,13.92
2019-05-05T10:25:53.978Z,13.79
2019-05-05T10:28:28.106Z,13.40
2019-05-05T10:31:04.767Z,13.54
2019-05-05T10:33:41.769Z,14.01
2019-05-05T10:36:17.317Z,13.83
2019-05-05T10:38:55.558Z,14.09
2019-05-05T10:41:29.502Z,13.70
2019-05-05T10:44:03.676Z,13.83
2019-05-05T10:46:39.568Z,13.76
2019-05-05T10:49:13.717Z,13.76
2019-05-05T10:51:49.247Z,13.73
2019-05-05T10:54:48.767Z,13.79
2019-05-05T10:57:25.617Z,13.64
2019-05-05T11:00:11.643Z,13.62
2019-05-05T11:02:36.942Z,13.32
2019-05-05T11:05:12.636Z,13.53
2019-05-05T11:07:47.995Z,13.41
2019-05-05T11:10:33.801Z,13.68
2019-05-05T11:13:09.562Z,13.97
2019-05-05T11:15:44.383Z,14.00
2019-05-05T11:18:20.470Z,13.97
2019-05-05T11:20:54.941Z,15.04
2019-05-05T11:23:30.637Z,15.59
2019-05-05T11:26:04.368Z,14.87
2019-05-05T11:28:38.229Z,15.53
2019-05-05T11:31:13.740Z,16.09
2019-05-05T11:34:03.784Z,16.41
2019-05-05T11:36:51.610Z,15.75
2019-05-05T11:39:25.402Z,16.94
2019-05-05T11:42:04.246Z,16.02
2019-05-05T11:45:04.246Z,16.50
2019-05-05T11:47:38.137Z,16.73
2019-05-05T11:50:14.730Z,16.03
2019-05-05T11:52:49.051Z,15.93
2019-05-05T11:55:24.882Z,15.86
2019-05-05T11:57:58.980Z,15.87
2019-05-05T12:00:34.727Z,15.87
2019-05-05T12:03:53.629Z,15.67
2019-05-05T12:06:27.884Z,15.93
2019-05-05T12:09:03.837Z,16.43
2019-05-05T12:11:37.648Z,16.52
2019-05-05T12:14:14.289Z,16.82
2019-05-05T12:16:48.732Z,16.47
2019-05-05T12:19:24.532Z,16.38
2019-05-05T12:22:00.122Z,15.70
2019-05-05T12:24:37.668Z,15.44
2019-05-05T12:27:24.467Z,15.27
2019-05-05T12:30:05.770Z,15.62
2019-05-05T12:32:41.399Z,15.11
2019-05-05T12:35:15.415Z,14.97
2019-05-05T12:37:49.236Z,15.07
2019-05-05T12:40:24.629Z,14.81
2019-05-05T12:43:03.663Z,15.19
2019-05-05T12:45:38.908Z,14.20
2019-05-05T12:48:24.101Z,14.38
2019-05-05T12:50:57.922Z,15.69
2019-05-05T12:53:32.724Z,15.60
2019-05-05T12:56:08.081Z,15.79
2019-05-05T12:58:44.030Z,15.21
2019-05-05T13:01:24.727Z,15.07
2019-05-05T13:03:58.575Z,14.99
2019-05-05T13:06:34.593Z,14.99
2019-05-05T13:09:09.567Z,14.81
2019-05-05T13:11:43.779Z,14.77
2019-05-05T13:14:19.691Z,15.56
2019-05-05T13:16:56.030Z,15.99
2019-05-05T13:19:44.608Z,15.79
2019-05-05T13:22:38.246Z,16.34
2019-05-05T13:25:30.988Z,15.77
2019-05-05T13:28:05.523Z,15.06
2019-05-05T13:30:39.424Z,14.61
2019-05-05T13:33:14.790Z,14.70
2019-05-05T13:35:49.700Z,14.26
2019-05-05T13:38:24.040Z,14.26
2019-05-05T13:40:58.755Z,13.99
2019-05-05T13:43:34.192Z,14.02
2019-05-05T13:46:14.027Z,14.12
2019-05-05T13:48:48.189Z,14.22
2019-05-05T13:51:37.179Z,13.94
2019-05-05T13:54:14.213Z,14.17
2019-05-05T13:56:49.125Z,14.02
2019-05-05T13:59:25.688Z,14.05
2019-05-05T14:02:00.017Z,13.69
2019-05-05T14:04:34.409Z,13.82
2019-05-05T14:07:08.577Z,13.47
2019-05-05T14:09:45.632Z,13.53
2019-05-05T14:12:23.819Z,13.56
2019-05-05T14:14:59.883Z,13.85
2019-05-05T14:17:40.747Z,13.67
2019-05-05T14:20:23.990Z,13.73
2019-05-05T14:22:58.107Z,13.53
2019-05-05T14:25:32.596Z,13.11
2019-05-05T14:28:09.730Z,12.77
2019-05-05T14:30:49.583Z,12.89
2019-05-05T14:33:29.549Z,13.02
2019-05-05T14:36:25.578Z,12.85
2019-05-05T14:39:04.151Z,13.09
2019-05-05T14:41:37.444Z,13.23
2019-05-05T14:44:16.034Z,13.22
2019-05-05T14:46:54.153Z,14.20
2019-05-05T14:49:33.926Z,14.38
2019-05-05T14:52:13.577Z,14.80
2019-05-05T14:54:50.601Z,14.90
2019-05-05T14:57:33.622Z,14.33
2019-05-05T15:00:09.123Z,14.24
2019-05-05T15:02:44.155Z,14.34
2019-05-05T15:05:36.567Z,14.34
2019-05-05T15:08:16.677Z,14.52
2019-05-05T15:11:03.637Z,14.57
2019-05-05T15:13:37.881Z,14.68
2019-05-05T15:16:13.847Z,14.28
2019-05-05T15:18:47.441Z,14.16
2019-05-05T15:21:21.184Z,14.38
2019-05-05T15:23:54.979Z,14.46
2019-05-05T15:26:29.138Z,14.26
2019-05-05T15:29:03.351Z,14.09
2019-05-05T15:31:37.976Z,13.98
2019-05-05T15:34:12.017Z,13.59
2019-05-05T15:36:46.302Z,13.59
2019-05-05T15:39:21.979Z,13.46
2019-05-05T15:41:55.867Z,13.45
2019-05-05T15:44:29.675Z,13.26
2019-05-05T15:47:03.536Z,13.31
2019-05-05T15:49:37.603Z,13.09
2019-05-05T15:52:13.605Z,13.12
2019-05-05T15:54:49.973Z,13.02
2019-05-05T15:57:25.834Z,13.21
2019-05-05T16:00:00.096Z,13.53
2019-05-05T16:02:36.014Z,13.56
2019-05-05T16:05:13.748Z,13.68
2019-05-05T16:07:48.651Z,13.47
2019-05-05T16:10:26.577Z,13.39
2019-05-05T16:13:00.698Z,13.15
2019-05-05T16:15:55.720Z,13.14
2019-05-05T16:18:48.117Z,12.66
2019-05-05T16:21:48.337Z,12.76
2019-05-05T16:24:24.826Z,12.53
2019-05-05T16:27:00.759Z,12.28
2019-05-05T16:29:36.209Z,12.35
2019-05-05T16:32:21.095Z,12.29
2019-05-05T16:34:49.545Z,12.51
2019-05-05T16:37:25.225Z,12.52
2019-05-05T16:39:59.036Z,12.48
2019-05-05T16:42:34.466Z,12.38
2019-05-05T16:45:48.005Z,12.39
2019-05-05T16:48:25.318Z,12.48
2019-05-05T16:50:57.381Z,12.38
2019-05-05T16:53:38.026Z,12.42
2019-05-05T16:56:14.193Z,12.27
2019-05-05T16:58:49.433Z,12.37
2019-05-05T17:01:23.305Z,12.34
2019-05-05T17:04:09.225Z,12.28
2019-05-05T17:06:35.122Z,12.30
2019-05-05T17:09:11.037Z,12.41
2019-05-05T17:12:05.555Z,12.38
2019-05-05T17:15:08.731Z,12.15
2019-05-05T17:17:49.694Z,12.05
2019-05-05T17:20:25.773Z,11.98
2019-05-05T17:23:04.150Z,12.09
2019-05-05T17:25:39.849Z,11.97
2019-05-05T17:28:16.322Z,12.15
2019-05-05T17:30:50.510Z,11.82
2019-05-05T17:33:27.082Z,11.75
2019-05-05T17:36:01.095Z,11.75
2019-05-05T17:38:37.666Z,11.62
2019-05-05T17:41:45.651Z,11.69
2019-05-05T17:44:50.876Z,11.46
2019-05-05T17:48:01.628Z,11.66
2019-05-05T17:50:56.515Z,11.47
2019-05-05T17:53:43.743Z,11.09
2019-05-05T17:56:20.402Z,10.96
2019-05-05T17:58:56.329Z,10.71
2019-05-05T18:01:33.656Z,10.68
2019-05-05T18:04:07.567Z,10.49
2019-05-05T18:07:06.167Z,10.44
2019-05-05T18:09:59.382Z,10.24
2019-05-05T18:13:05.731Z,10.16
2019-05-05T18:15:58.486Z,10.01
2019-05-05T18:18:34.579Z,9.94
2019-05-05T18:21:08.578Z,9.80
2019-05-05T18:23:43.910Z,9.75
2019-05-05T18:26:25.063Z,9.62
2019-05-05T18:28:59.495Z,9.47
2019-05-05T18:31:33.787Z,9.53
2019-05-05T18:34:09.200Z,9.31
2019-05-05T18:36:44.671Z,9.36
2019-05-05T18:39:18.690Z,9.08
2019-05-05T18:42:11.259Z,9.07
2019-05-05T18:44:47.544Z,8.88
2019-05-05T18:47:24.872Z,8.84
2019-05-05T18:50:01.640Z,8.87
2019-05-05T18:52:36.311Z,8.58
2019-05-05T18:55:11.143Z,8.41
2019-05-05T18:57:45.041Z,8.33
2019-05-05T19:00:29.709Z,8.28
2019-05-05T19:03:17.780Z,8.25
2019-05-05T19:05:53.523Z,8.11
2019-05-05T19:08:30.973Z,8.07
2019-05-05T19:11:07.104Z,7.95
2019-05-05T19:13:44.677Z,7.87
2019-05-05T19:16:23.752Z,7.78
2019-05-05T19:18:59.559Z,7.75
2019-05-05T19:21:43.751Z,7.63
2019-05-05T19:24:24.019Z,7.64
2019-05-05T19:26:59.674Z,7.76
2019-05-05T19:29:33.918Z,7.67
2019-05-05T19:32:07.886Z,7.52
2019-05-05T19:34:44.018Z,7.41
2019-05-05T19:37:17.969Z,7.35
2019-05-05T19:39:53.510Z,7.29
2019-05-05T19:42:27.764Z,7.19
2019-05-05T19:45:09.119Z,7.05
2019-05-05T19:47:43.994Z,7.06
2019-05-05T19:50:35.778Z,6.88
2019-05-05T19:53:25.012Z,6.86
2019-05-05T19:55:59.095Z,6.72
2019-05-05T19:58:34.097Z,6.71
2019-05-05T20:01:08.338Z,6.59
2019-05-05T20:03:44.042Z,6.55
2019-05-05T20:06:19.251Z,6.41
2019-05-05T20:08:56.123Z,6.38
2019-05-05T20:11:40.011Z,6.31
2019-05-05T20:14:15.379Z,6.31
2019-05-05T20:17:08.791Z,6.28
2019-05-05T20:19:45.093Z,6.26
2019-05-05T20:22:19.204Z,6.19
2019-05-05T20:24:53.422Z,6.19
2019-05-05T20:27:27.522Z,6.25
2019-05-05T20:30:01.725Z,6.20
2019-05-05T20:32:51.624Z,6.14
2019-05-05T20:35:33.665Z,6.12
2019-05-05T20:38:21.135Z,6.10
2019-05-05T20:41:14.199Z,5.97
2019-05-05T20:43:50.047Z,5.94
2019-05-05T20:46:23.920Z,5.88
2019-05-05T20:48:58.064Z,5.81
2019-05-05T20:51:33.949Z,5.73
2019-05-05T20:54:08.007Z,5.64
2019-05-05T20:56:44.482Z,5.58
2019-05-05T20:59:28.255Z,5.52
2019-05-05T21:01:54.957Z,5.48
2019-05-05T21:04:30.502Z,5.40
2019-05-05T21:07:04.546Z,5.42
2019-05-05T21:09:38.215Z,5.32
2019-05-05T21:12:13.767Z,5.25
2019-05-05T21:14:49.219Z,5.21
2019-05-05T21:17:24.191Z,5.22
2019-05-05T21:19:57.958Z,5.17
2019-05-05T21:22:54.004Z,5.17
2019-05-05T21:25:38.847Z,5.14
2019-05-05T21:28:14.554Z,5.13
2019-05-05T21:30:49.780Z,5.18
2019-05-05T21:33:25.205Z,5.11
2019-05-05T21:35:59.010Z,5.03
2019-05-05T21:38:35.724Z,5.00
2019-05-05T21:41:10.561Z,4.90
2019-05-05T21:43:45.239Z,4.79
2019-05-05T21:46:18.939Z,4.80
2019-05-05T21:48:54.339Z,4.69
2019-05-05T21:51:46.420Z,4.73
2019-05-05T21:54:37.604Z,4.66
2019-05-05T21:57:30.293Z,4.67
2019-05-05T22:00:06.388Z,4.58
2019-05-05T22:02:41.222Z,4.44
2019-05-05T22:05:16.045Z,4.39
2019-05-05T22:07:49.960Z,4.40
2019-05-05T22:10:25.305Z,4.31
2019-05-05T22:13:00.852Z,4.25
2019-05-05T22:15:35.715Z,4.34
2019-05-05T22:18:10.004Z,4.35
2019-05-05T22:20:50.156Z,4.35
2019-05-05T22:23:23.762Z,4.40
2019-05-05T22:25:57.461Z,4.39
2019-05-05T22:28:31.170Z,4.33
2019-05-05T22:31:05.796Z,4.26
2019-05-05T22:33:41.243Z,4.20
2019-05-05T22:36:24.390Z,4.21
2019-05-05T22:38:58.151Z,4.13
2019-05-05T22:41:33.640Z,4.11
2019-05-05T22:44:10.291Z,4.09
2019-05-05T22:46:46.479Z,4.06
2019-05-05T22:49:20.261Z,4.05
2019-05-05T22:51:56.113Z,4.03
2019-05-05T22:54:29.720Z,4.07
2019-05-05T22:57:05.571Z,4.16
2019-05-05T22:59:39.275Z,4.15
2019-05-05T23:02:14.599Z,4.18
2019-05-05T23:04:55.410Z,4.24
2019-05-05T23:07:34.788Z,4.27
2019-05-05T23:10:08.882Z,4.32
2019-05-05T23:12:44.024Z,4.34
2019-05-05T23:15:19.013Z,4.35
2019-05-05T23:18:04.126Z,4.32
2019-05-05T23:21:10.439Z,4.30
2019-05-05T23:23:56.305Z,4.27
2019-05-05T23:26:35.862Z,4.33
2019-05-05T23:29:11.292Z,4.35
2019-05-05T23:31:46.021Z,4.30
2019-05-05T23:34:19.745Z,4.24
2019-05-05T23:36:57.227Z,4.23
2019-05-05T23:39:31.232Z,4.21
2019-05-05T23:42:04.939Z,4.22
2019-05-05T23:44:40.072Z,4.13
2019-05-05T23:47:15.114Z,4.04
2019-05-05T23:49:50.017Z,4.00
2019-05-05T23:52:24.767Z,3.93
2019-05-05T23:54:58.482Z,3.90
2019-05-05T23:57:36.071Z,3.89
